Latest Weather Observations for Rockhampton

IDQ60801

Issued at 6:32 pm EST Thursday 26 May 2016 (issued every 30 minutes, with the page automatically refreshed every 10 minutes)

About weather observations | Map of weather stations | Latest weather observations for QLD | Other Formats
Station Details ID: 039083 Name: ROCKHAMPTON AERO Lat: -23.38 Lon: 150.48 Height: 10.4 m
Data from the previous 72 hours. | See also: Recent months at Rockhampton
Date/Time
EST
Temp
°C
App
Temp
°C
Dew
Point
Rel
Hum
%
Delta-T
°C
Wind Press
QNH
hPa
Press
MSL
hPa
Rain
since 9 am
mm
Dir
 
Spd
km/h
Gust
km/h
Spd
kts
Gust
kts
26/06:30pm 24.5 22.9 15.9 58 5.2 N 19 24 10 13 1012.7 1012.7 0.0
26/06:00pm 25.2 23.3 15.1 53 6.1 N 19 24 10 13 1012.4 1012.4 0.0
26/05:30pm 25.9 24.0 14.3 48 6.9 N 17 22 9 12 1012.0 1012.0 0.0
26/05:00pm 27.2 25.0 14.8 46 7.5 N 20 26 11 14 1011.6 1011.6 0.0
26/04:30pm 28.6 26.2 14.3 41 8.6 N 20 30 11 16 1010.8 1010.8 0.0
26/04:00pm 30.0 27.6 12.5 34 10.3 NNW 17 26 9 14 1010.8 1010.8 0.0
26/03:30pm 30.5 27.4 12.1 32 10.8 NNW 20 28 11 15 1010.5 1010.5 0.0
26/03:00pm 30.4 27.3 12.2 32 10.7 N 20 28 11 15 1010.8 1010.8 0.0
26/02:30pm 30.6 28.2 12.7 33 10.6 N 17 28 9 15 1011.6 1011.6 0.0
26/02:00pm 29.7 27.9 13.2 36 9.8 NNW 15 26 8 14 1012.5 1012.5 0.0
26/01:30pm 29.7 27.7 13.9 38 9.5 N 17 24 9 13 1012.8 1012.8 0.0
26/01:00pm 29.0 26.1 12.4 36 9.7 NNW 19 30 10 16 1013.3 1013.3 0.0
26/12:30pm 29.1 27.1 13.9 39 9.1 NNW 17 24 9 13 1013.9 1013.9 0.0
26/12:00pm 27.9 27.3 15.7 47 7.5 NNW 13 22 7 12 1014.6 1014.6 0.0
26/11:30am 27.2 26.5 16.4 51 6.7 NNW 15 24 8 13 1015.3 1015.3 0.0
26/11:00am 26.6 27.7 18.1 59 5.4 N 9 17 5 9 1015.9 1015.9 0.0
26/10:30am 25.2 25.7 18.4 66 4.3 NNW 13 17 7 9 1016.4 1016.4 0.0
26/10:00am 24.5 25.8 18.5 69 3.8 NNW 9 19 5 10 1016.9 1016.9 0.0
26/09:30am 22.5 24.7 16.6 69 3.6 CALM 0 0 0 0 1017.1 1017.1 0.0
26/09:00am 21.1 23.1 16.1 73 3.0 CALM 0 6 0 3 1017.3 1017.3 0.0
26/08:49am 20.8 22.4 16.0 74 2.9 S 2 6 1 3 1017.3 1017.3 0.0
26/08:30am 19.8 21.7 15.8 78 2.4 CALM 0 0 0 0 1017.2 1017.2 0.0
26/08:00am 17.8 18.3 15.0 84 1.6 WSW 6 7 3 4 1017.0 1017.0 0.0
26/07:30am 16.1 16.3 14.3 89 1.0 WSW 6 7 3 4 1016.8 1016.8 0.0
26/07:00am 15.1 14.9 13.7 91 0.8 WSW 7 9 4 5 1016.6 1016.6 0.0
26/06:30am 15.3 16.2 13.9 91 0.8 SW 2 7 1 4 1016.6 1016.6 0.0
26/06:00am 15.2 15.2 13.6 90 0.9 SW 6 7 3 4 1016.3 1016.3 0.0
26/05:30am 14.8 14.5 13.2 90 0.9 SW 7 9 4 5 1016.2 1016.2 0.0
26/05:00am 16.2 16.4 14.3 88 1.1 S 6 7 3 4 1015.9 1015.9 0.0
26/04:30am 15.5 16.8 14.1 91 0.8 CALM 0 0 0 0 1016.1 1016.1 0.0
26/04:00am 15.5 15.9 13.7 89 1.0 WSW 4 7 2 4 1016.1 1016.1 0.0
26/03:30am 16.0 16.2 14.1 88 1.1 WSW 6 7 3 4 1016.1 1016.1 0.0
26/03:00am 16.2 16.3 13.9 86 1.3 SSW 6 7 3 4 1016.2 1016.2 0.0
26/02:30am 16.9 18.3 14.3 85 1.5 CALM 0 0 0 0 1016.1 1016.1 0.0
26/02:00am 17.6 18.0 14.7 83 1.7 SE 6 7 3 4 1016.4 1016.4 0.0
26/01:30am 17.5 18.9 14.5 82 1.7 CALM 0 0 0 0 1016.5 1016.5 0.0
26/01:00am 18.0 19.4 14.5 80 2.0 CALM 0 0 0 0 1016.7 1016.7 0.0
26/12:30am 18.2 19.7 14.6 79 2.1 CALM 0 6 0 3 1016.9 1016.9 0.0
26/12:00am 18.4 19.1 14.6 78 2.2 SSE 4 7 2 4 1017.1 1017.1 0.0
 
Date/Time
EST
Temp
°C
App
Temp
°C
Dew
Point
Rel
Hum
%
Delta-T
°C
Wind Press
QNH
hPa
Press
MSL
hPa
Rain
since 9 am
mm
Dir
 
Spd
km/h
Gust
km/h
Spd
kts
Gust
kts
25/11:30pm 18.9 20.5 14.8 77 2.4 CALM 0 0 0 0 1017.2 1017.2 0.0
25/11:00pm 19.5 19.8 14.5 73 2.9 S 6 7 3 4 1017.2 1017.2 0.0
25/10:30pm 19.4 19.4 14.2 72 3.0 SE 7 9 4 5 1017.2 1017.2 0.0
25/10:00pm 19.5 19.5 14.3 72 3.0 SSE 7 11 4 6 1017.1 1017.1 0.0
25/09:30pm 19.8 20.5 13.5 67 3.6 NNE 2 6 1 3 1017.0 1017.0 0.0
25/09:00pm 19.2 18.7 13.8 71 3.1 WNW 9 11 5 6 1017.0 1017.0 0.0
25/08:30pm 20.0 20.2 13.1 64 3.9 S 4 6 2 3 1016.8 1016.8 0.0
25/08:00pm 20.9 20.2 11.9 56 5.0 SW 7 9 4 5 1016.4 1016.4 0.0
25/07:30pm 21.7 21.2 12.1 54 5.4 SW 6 9 3 5 1016.2 1016.2 0.0
25/07:00pm 21.9 21.1 11.7 52 5.7 S 7 13 4 7 1015.7 1015.7 0.0
25/06:30pm 22.9 21.8 12.1 50 6.1 ENE 9 11 5 6 1015.3 1015.3 0.0
25/06:00pm 23.7 21.7 11.6 46 6.8 N 13 17 7 9 1014.8 1014.8 0.0
25/05:30pm 24.2 22.5 12.3 47 6.8 NNE 13 17 7 9 1014.3 1014.3 0.0
25/05:00pm 26.1 23.8 11.7 40 8.2 NNE 15 20 8 11 1014.0 1014.0 0.0
25/04:30pm 28.1 24.4 9.6 31 10.3 NNE 19 22 10 12 1013.8 1013.8 0.0
25/04:00pm 29.4 26.3 5.5 22 12.5 NNW 11 15 6 8 1013.9 1013.9 0.0
25/03:30pm 29.9 27.5 7.0 23 12.3 N 9 13 5 7 1014.1 1014.1 0.0
25/03:00pm 29.6 26.4 5.2 21 12.7 N 11 17 6 9 1014.1 1014.1 0.0
25/02:30pm 29.1 25.8 6.5 24 12.0 N 13 17 7 9 1014.3 1014.3 0.0
25/02:00pm 29.4 27.1 7.6 25 11.8 NNW 9 15 5 8 1014.5 1014.5 0.0
25/01:30pm 29.2 26.7 6.7 24 12.0 NNW 9 15 5 8 1014.9 1014.9 0.0
25/01:00pm 29.0 26.6 7.2 25 11.7 NNW 9 15 5 8 1015.3 1015.3 0.0
25/12:30pm 27.9 25.7 6.1 25 11.4 NW 7 13 4 7 1015.9 1015.9 0.0
25/12:00pm 27.2 24.3 4.8 24 11.4 N 9 11 5 6 1016.8 1016.8 0.0
25/11:30am 26.2 23.1 3.6 23 11.2 SSE 9 11 5 6 1017.2 1017.2 0.0
25/11:00am 25.6 21.9 0.1 18 11.8 SE 9 13 5 7 1017.6 1017.6 0.0
25/10:30am 24.4 19.9 -0.6 19 11.3 SE 13 17 7 9 1018.1 1018.1 0.0
25/10:00am 23.8 20.2 0.5 21 10.7 S 9 15 5 8 1018.5 1018.5 0.0
25/09:30am 22.4 18.8 0.3 23 10.0 S 9 13 5 7 1018.6 1018.6 0.0
25/09:00am 21.2 17.8 2.0 28 8.9 SSE 9 13 5 7 1018.5 1018.5 0.0
25/08:30am 20.0 17.4 6.1 40 6.9 S 9 13 5 7 1018.6 1018.6 0.0
25/08:00am 19.4 17.1 7.6 46 6.0 S 9 13 5 7 1018.1 1018.1 0.0
25/07:30am 18.4 15.7 9.0 54 4.9 S 13 17 7 9 1018.0 1018.0 0.0
25/07:00am 17.4 15.3 11.3 67 3.3 S 13 17 7 9 1017.7 1017.7 0.0
25/06:30am 17.6 16.3 12.6 72 2.8 S 11 15 6 8 1017.3 1017.3 0.0
25/06:00am 17.9 17.0 12.5 70 3.0 SSE 9 11 5 6 1017.0 1017.0 0.0
25/05:30am 17.8 16.9 13.6 76 2.4 S 11 15 6 8 1016.6 1016.6 0.0
25/05:00am 18.8 18.3 13.9 73 2.8 SSW 9 13 5 7 1016.5 1016.5 0.0
25/04:30am 18.8 19.2 14.7 77 2.4 SSE 6 9 3 5 1016.1 1016.1 0.0
25/04:00am 18.2 18.0 14.6 79 2.1 S 9 13 5 7 1016.1 1016.1 0.0
25/03:30am 18.4 18.6 14.6 78 2.2 S 7 9 4 5 1016.3 1016.3 0.0
25/03:00am 18.8 19.0 14.7 77 2.4 SSE 7 9 4 5 1016.4 1016.4 0.0
25/02:30am 18.4 19.1 15.5 83 1.7 SSE 6 9 3 5 1016.6 1016.6 0.0
25/02:00am 18.5 20.3 15.6 83 1.7 CALM 0 0 0 0 1016.7 1016.7 0.0
25/01:30am 18.5 20.3 15.6 83 1.7 CALM 0 0 0 0 1016.8 1016.8 0.0
25/01:00am 19.0 20.7 15.1 78 2.3 CALM 0 0 0 0 1016.8 1016.8 0.0
25/12:30am 19.0 20.5 15.6 80 2.0 E 2 6 1 3 1016.9 1016.9 0.0
25/12:00am 19.1 21.1 16.1 83 1.8 CALM 0 0 0 0 1017.0 1017.0 0.0
 
Date/Time
EST
Temp
°C
App
Temp
°C
Dew
Point
Rel
Hum
%
Delta-T
°C
Wind Press
QNH
hPa
Press
MSL
hPa
Rain
since 9 am
mm
Dir
 
Spd
km/h
Gust
km/h
Spd
kts
Gust
kts
24/11:30pm 19.9 21.8 15.7 77 2.5 CALM 0 0 0 0 1017.0 1017.0 0.0
24/11:00pm 19.8 20.5 15.6 77 2.5 SSW 6 7 3 4 1017.2 1017.2 0.0
24/10:30pm 21.1 22.5 15.4 70 3.4 E 2 6 1 3 1017.2 1017.2 0.0
24/10:00pm 21.4 21.8 15.3 68 3.6 NNW 7 7 4 4 1017.3 1017.3 0.0
24/09:30pm 21.8 23.1 15.2 66 3.9 N 2 7 1 4 1017.3 1017.3 0.0
24/09:00pm 22.5 23.1 15.7 65 4.1 NNW 7 11 4 6 1017.4 1017.4 0.0
24/08:30pm 22.4 22.1 15.4 64 4.2 NW 11 13 6 7 1017.2 1017.2 0.0
24/08:00pm 23.5 23.6 15.5 60 4.8 NW 9 11 5 6 1017.2 1017.2 0.0
24/07:30pm 23.8 23.1 15.3 59 5.1 WSW 13 17 7 9 1017.2 1017.2 0.0
24/07:00pm 25.1 24.5 14.5 51 6.3 N 11 15 6 8 1016.7 1016.7 0.0
24/06:30pm 25.3 24.2 14.4 50 6.5 N 13 15 7 8 1016.1 1016.1 0.0
24/06:00pm 26.1 25.6 15.0 50 6.7 N 11 13 6 7 1015.6 1015.6 0.0
24/05:30pm 26.8 25.7 14.2 46 7.5 N 13 15 7 8 1015.4 1015.4 0.0
24/05:00pm 27.9 27.5 13.1 40 8.7 N 7 9 4 5 1015.1 1015.1 0.0
24/04:30pm 28.9 27.7 12.7 36 9.5 NNE 11 13 6 7 1014.8 1014.8 0.0
24/04:00pm 29.3 27.7 12.9 36 9.7 NE 13 15 7 8 1014.6 1014.6 0.0
24/03:30pm 30.0 28.4 12.7 34 10.2 NNE 13 17 7 9 1014.4 1014.4 0.0
24/03:00pm 30.3 29.1 12.9 34 10.3 NE 11 15 6 8 1014.2 1014.2 0.0
24/02:30pm 29.9 29.4 13.7 37 9.7 ENE 9 24 5 13 1014.3 1014.3 0.0
24/02:00pm 30.0 29.4 13.6 36 9.8 ESE 9 13 5 7 1014.3 1014.3 0.0
24/01:30pm 30.1 29.5 13.6 36 9.9 SE 9 15 5 8 1014.5 1014.5 0.0
24/01:00pm 29.6 30.0 14.8 40 9.0 WNW 6 9 3 5 1014.8 1014.8 0.0
24/12:30pm 29.2 29.3 14.5 40 8.9 SSE 7 11 4 6 1015.2 1015.2 0.0
24/12:00pm 28.4 28.4 15.3 45 8.0 SSW 9 19 5 10 1016.1 1016.1 0.0
24/11:30am 27.5 28.4 16.5 51 6.8 WSW 7 13 4 7 1016.6 1016.6 0.0
24/11:00am 25.8 26.9 16.7 57 5.6 WNW 6 11 3 6 1017.2 1017.2 0.0
24/10:30am 25.2 26.5 17.0 60 5.1 SW 6 9 3 5 1017.5 1017.5 0.0
24/10:00am 24.4 25.6 16.8 62 4.7 WSW 6 11 3 6 1018.0 1018.0 0.0
24/09:30am 23.3 24.3 16.8 67 4.0 W 7 9 4 5 1018.3 1018.3 0.0
24/09:00am 22.1 24.6 17.2 74 3.0 CALM 0 0 0 0 1018.4 1018.4 0.0
24/08:30am 21.2 23.8 17.5 79 2.3 CALM 0 0 0 0 1018.2 1018.2 0.0
24/08:00am 20.4 23.1 17.8 85 1.6 CALM 0 0 0 0 1018.2 1018.2 0.0
24/07:30am 19.6 22.3 17.8 89 1.1 CALM 0 0 0 0 1017.8 1017.8 0.0
24/07:00am 19.3 21.8 17.3 88 1.2 CALM 0 0 0 0 1017.6 1017.6 0.0
24/06:30am 19.0 21.6 17.4 90 1.0 CALM 0 0 0 0 1017.5 1017.5 0.0
24/06:00am 18.9 21.3 17.1 89 1.1 CALM 0 0 0 0 1017.2 1017.2 0.0
24/05:30am 18.9 21.4 17.3 90 1.0 CALM 0 0 0 0 1017.2 1017.2 0.0
24/05:00am 19.1 21.5 17.1 88 1.2 CALM 0 0 0 0 1017.2 1017.2 0.0
24/04:30am 19.4 21.9 17.3 88 1.3 CALM 0 0 0 0 1017.4 1017.4 0.0
24/04:00am 19.5 20.9 17.4 88 1.3 NW 6 9 3 5 1017.2 1017.2 0.0
24/03:30am 19.7 21.5 17.4 86 1.4 N 4 7 2 4 1017.4 1017.4 0.0
24/03:00am 20.0 22.5 17.2 84 1.7 CALM 0 0 0 0 1017.4 1017.4 0.0
24/02:30am 20.3 22.9 17.4 83 1.8 CALM 0 0 0 0 1017.4 1017.4 0.0
24/02:00am 20.7 23.3 17.6 82 1.9 CALM 0 0 0 0 1017.4 1017.4 0.0
24/01:30am 20.4 21.7 17.1 81 2.0 ENE 6 7 3 4 1017.5 1017.5 0.0
24/01:00am 20.4 22.8 17.1 81 2.0 CALM 0 6 0 3 1017.9 1017.9 0.0
24/12:30am 20.5 21.9 17.4 82 1.9 S 6 7 3 4 1018.1 1018.1 0.0
24/12:00am 20.5 23.0 17.2 81 2.0 CALM 0 0 0 0 1018.3 1018.3 0.0
 
Date/Time
EST
Temp
°C
App
Temp
°C
Dew
Point
Rel
Hum
%
Delta-T
°C
Wind Press
QNH
hPa
Press
MSL
hPa
Rain
since 9 am
mm
Dir
 
Spd
km/h
Gust
km/h
Spd
kts
Gust
kts
23/11:30pm 21.0 22.0 16.9 77 2.5 SSW 7 9 4 5 1018.3 1018.3 0.0
23/11:00pm 21.2 23.6 16.9 76 2.6 CALM 0 7 0 4 1018.4 1018.4 0.0
23/10:30pm 21.4 23.7 16.8 75 2.8 CALM 0 0 0 0 1018.5 1018.5 0.0
23/10:00pm 21.4 23.8 17.0 76 2.7 CALM 0 0 0 0 1018.6 1018.6 0.0
23/09:30pm 21.5 24.0 18.1 81 2.1 SSW 2 6 1 3 1018.4 1018.4 0.0
23/09:00pm 21.9 23.1 16.8 73 3.1 SSE 6 7 3 4 1018.5 1018.5 0.0
23/08:30pm 22.0 23.9 16.7 72 3.2 N 2 7 1 4 1018.6 1018.6 0.0
23/08:00pm 22.1 23.7 17.0 73 3.1 N 4 7 2 4 1018.4 1018.4 0.0
23/07:30pm 22.4 23.2 16.3 68 3.7 N 7 11 4 6 1018.5 1018.5 0.0
23/07:00pm 22.9 23.5 17.6 72 3.3 N 11 15 6 8 1018.2 1018.2 0.0

Other Formats:

Comma delimited format used in spreadsheet applications
http://www.bom.gov.au/fwo/IDQ60801/IDQ60801.94374.axf

JavaScript Object Notation format (JSON) in row-major order
http://www.bom.gov.au/fwo/IDQ60801/IDQ60801.94374.json